Time;durP1;ratioP1;P1;durP2;ratioP2;P2;SDS_P1;SDS_P2;PMS_P1;PMS_P2;Temp;Humidity;BMP_temperature;BMP_pressure;BME280_temperature;BME280_humidity;BME280_pressure;Samples;Min_cycle;Max_cycle;Signal;HPM_P1;HPM_P2
2022/10/20 00:03:28;;;;;;;39.00;30.10;;;;;;;4.06;71.66;101614.66;107156;1298;23751;-83
2022/10/20 00:07:06;;;;;;;;;;;;;;;;;;;;;
2022/10/20 00:09:58;;;;;;;42.80;29.10;;;;;;;3.98;71.85;101621.80;107327;1295;23803;-83
2022/10/20 00:12:53;;;;;;;;;;;;;;;3.98;71.85;101620.42;107192;1295;21974;-83
2022/10/20 00:16:17;;;;;;;47.50;28.70;;;;;;;3.90;72.05;101624.66;107100;1295;21962;-83
2022/10/20 00:19:36;;;;;;;44.20;31.50;;;;;;;3.85;71.96;101619.26;107217;1295;21998;-83
2022/10/20 00:26:35;;;;;;;;;;;;;;;;;;;;;
2022/10/20 00:29:49;;;;;;;31.80;25.30;;;;;;;3.76;71.90;101609.01;106065;1308;24335;-82
2022/10/20 00:33:35;;;;;;;;;;;;;;;;;;;;;
2022/10/20 00:36:50;;;;;;;37.00;25.50;;;;;;;3.75;72.06;101603.15;106063;1305;22443;-81
2022/10/20 00:39:37;;;;;;;37.00;26.30;;;;;;;3.76;72.02;101602.96;105866;1309;22005;-81
2022/10/20 00:42:45;;;;;;;38.60;25.90;;;;;;;3.76;72.10;101603.49;106000;1305;23086;-82
2022/10/20 00:46:04;;;;;;;;;;;;;;;;;;;;;
2022/10/20 00:48:59;;;;;;;36.90;25.90;;;;;;;3.72;72.00;101602.42;106491;1297;22441;-82
2022/10/20 00:52:18;;;;;;;;;;;;;;;;;;;;;
2022/10/20 00:54:55;;;;;;;38.00;25.40;;;;;;;3.68;72.07;101593.45;105794;1307;23831;-82
2022/10/20 00:57:58;;;;;;;;;;;;;;;;;;;;;
2022/10/20 01:01:30;;;;;;;34.40;23.90;;;;;;;3.66;71.95;101597.55;106135;1304;21986;-82
2022/10/20 01:04:17;;;;;;;29.60;22.00;;;;;;;3.60;71.95;101593.86;106383;1301;21963;-82
2022/10/20 01:07:12;;;;;;;32.70;22.60;;;;;;;3.61;72.06;101597.83;106343;1301;21976;-82
2022/10/20 01:10:03;;;;;;;;;;;;;;;;;;;;;
2022/10/20 01:14:01;;;;;;;;;;;;;;;;;;;;;
2022/10/20 01:17:54;;;;;;;;;;;;;;;;;;;;;
2022/10/20 01:21:28;;;;;;;31.40;22.90;;;;;;;3.45;72.03;101588.20;107539;1292;21970;-83
2022/10/20 01:25:10;;;;;;;;;;;;;;;;;;;;;
2022/10/20 01:28:48;;;;;;;32.40;23.00;;;;;;;3.39;72.24;101586.58;107384;1292;22004;-80
2022/10/20 01:32:00;;;;;;;32.40;23.60;;;;;;;3.37;72.08;101588.79;106516;1300;21981;-80
2022/10/20 01:35:19;;;;;;;28.80;21.10;;;;;;;3.34;72.03;101585.14;106662;1300;22819;-81
2022/10/20 01:38:09;;;;;;;30.00;21.50;;;;;;;3.32;72.12;101583.41;106061;1306;22444;-80
2022/10/20 01:41:49;;;;;;;;;;;;;;;;;;;;;
2022/10/20 01:44:38;;;;;;;33.40;21.80;;;;;;;3.25;72.06;101582.12;106063;1306;22149;-84
2022/10/20 01:47:56;;;;;;;29.80;22.10;;;;;;;3.19;72.05;101582.90;105730;1307;22571;-83
2022/10/20 01:50:52;;;;;;;27.30;21.60;;;;;;;3.13;72.21;101583.68;105212;1318;23121;-83
2022/10/20 01:53:40;;;;;;;;;;;;;;;;;;;;;
2022/10/20 01:57:16;;;;;;;;;;;;;;;;;;;;;
2022/10/20 02:00:07;;;;;;;27.00;20.80;;;;;;;3.06;72.27;101585.66;105409;1318;21998;-84
2022/10/20 02:03:29;;;;;;;38.00;20.40;;;;;;;3.05;72.03;101589.42;105332;1316;24186;-83
2022/10/20 02:06:43;;;;;;;;;;;;;;;;;;;;;
2022/10/20 02:10:00;;;;;;;27.30;20.30;;;;;;;3.00;72.34;101578.87;105405;1312;22607;-84
2022/10/20 02:12:54;;;;;;;35.30;21.80;;;;;;;2.98;72.47;101573.52;105805;1312;22367;-84
2022/10/20 02:16:07;;;;;;;;;;;;;;;;;;;;;
2022/10/20 02:19:12;;;;;;;42.20;31.50;;;;;;;3.04;72.56;101568.42;105996;1306;23167;-84
2022/10/20 02:22:36;;;;;;;45.90;36.30;;;;;;;3.03;72.49;101574.61;106937;1300;23809;-84
2022/10/20 02:26:15;;;;;;;44.70;34.80;;;;;;;3.03;72.52;101581.48;106557;1304;22307;-85
2022/10/20 02:29:32;;;;;;;54.40;40.00;;;;;;;3.03;72.49;101576.33;106304;1306;22417;-85
2022/10/20 02:32:43;;;;;;;58.30;47.60;;;;;;;3.01;72.34;101572.52;106751;1304;23083;-86
2022/10/20 02:36:15;;;;;;;;;;;;;;;;;;;;;
2022/10/20 02:39:36;;;;;;;61.90;47.20;;;;;;;2.99;72.57;101574.21;106691;1303;21951;-86
2022/10/20 02:43:00;;;;;;;;;;;;;;;;;;;;;
2022/10/20 02:46:33;;;;;;;51.90;40.50;;;;;;;2.95;72.42;101578.98;107412;1295;22003;-83
2022/10/20 02:49:27;;;;;;;;;;;;;;;;;;;;;
2022/10/20 02:52:43;;;;;;;61.30;43.30;;;;;;;2.88;72.54;101574.95;107338;1294;22484;-84
2022/10/20 02:56:05;;;;;;;56.50;40.30;;;;;;;2.87;72.49;101579.73;106897;1293;22420;-83
2022/10/20 02:59:36;;;;;;;62.80;45.10;;;;;;;2.81;72.57;101584.82;106551;1295;21955;-83
2022/10/20 03:02:54;;;;;;;60.40;45.70;;;;;;;2.67;72.28;101580.66;107450;1295;21974;-83
2022/10/20 03:06:20;;;;;;;69.90;52.40;;;;;;;2.57;72.46;101582.75;107377;1295;21954;-82
2022/10/20 03:09:48;;;;;;;;;;;;;;;;;;;;;
2022/10/20 03:13:16;;;;;;;;;;;;;;;;;;;;;
2022/10/20 03:16:24;;;;;;;;;;;;;;;;;;;;;
2022/10/20 03:19:39;;;;;;;104.60;81.00;;;;;;;2.62;73.15;101596.75;106892;1296;21966;-80
2022/10/20 03:23:14;;;;;;;224.00;172.80;;;;;;;2.60;73.18;101587.77;106890;1298;22101;-81
2022/10/20 03:26:45;;;;;;;;;;;;;;;;;;;;;
2022/10/20 03:30:17;;;;;;;;;;;;;;;;;;;;;
2022/10/20 03:33:37;;;;;;;265.60;196.80;;;;;;;2.57;73.09;101579.30;107431;1295;21970;-80
2022/10/20 03:36:41;;;;;;;291.30;217.50;;;;;;;2.58;73.11;101577.09;106693;1297;21958;-81
2022/10/20 03:39:58;;;;;;;220.80;168.10;;;;;;;2.59;73.05;101578.66;106798;1300;22018;-82
2022/10/20 03:43:19;;;;;;;;;;;;;;;;;;;;;
2022/10/20 03:45:53;;;;;;;212.70;130.80;;;;;;;2.57;73.06;101569.69;106241;1304;24269;-82
2022/10/20 03:48:25;;;;;;;193.60;113.70;;;;;;;2.60;72.87;101569.03;106192;1306;22705;-82
2022/10/20 03:51:22;;;;;;;143.90;89.80;;;;;;;2.61;73.00;101571.98;106453;1298;21943;-82
2022/10/20 03:53:53;;;;;;;134.00;84.80;;;;;;;2.61;72.95;101571.98;106852;1296;21950;-81
2022/10/20 03:57:03;;;;;;;97.10;62.70;;;;;;;2.60;72.89;101575.41;107064;1295;22238;-82
2022/10/20 03:59:58;;;;;;;70.40;50.10;;;;;;;2.57;72.73;101574.84;107225;1292;23061;-81
2022/10/20 04:02:47;;;;;;;72.20;50.00;;;;;;;2.54;72.72;101571.89;108074;1289;21957;-80
2022/10/20 04:06:15;;;;;;;73.70;52.60;;;;;;;2.51;72.88;101567.55;108104;1290;22661;-83
2022/10/20 04:09:10;;;;;;;;;;;;;;;;;;;;;
2022/10/20 04:12:20;;;;;;;95.10;69.30;;;;;;;2.44;72.86;101553.17;107538;1295;21972;-83
2022/10/20 04:15:28;;;;;;;95.40;62.30;;;;;;;2.42;72.95;101547.48;107556;1295;21960;-82
2022/10/20 04:18:46;;;;;;;;;;;;;;;;;;;;;
2022/10/20 04:21:48;;;;;;;;;;;;;;;;;;;;;
2022/10/20 04:24:46;;;;;;;54.30;40.20;;;;;;;2.10;72.32;101546.64;106341;1302;21973;-81
2022/10/20 04:27:41;;;;;;;57.00;40.00;;;;;;;1.97;72.45;101548.14;106418;1304;21963;-81
2022/10/20 04:30:47;;;;;;;56.10;43.80;;;;;;;1.94;72.83;101548.27;106635;1298;22719;-81
2022/10/20 04:33:56;;;;;;;;;;;;;;;;;;;;;
2022/10/20 04:37:09;;;;;;;84.00;59.20;;;;;;;1.98;73.35;101539.91;107035;1298;21993;-79
2022/10/20 04:40:01;;;;;;;72.10;56.50;;;;;;;1.99;73.35;101536.67;106724;1301;21972;-80
2022/10/20 04:42:48;;;;;;;68.20;52.30;;;;;;;2.01;73.37;101539.10;106355;1301;22011;-78
2022/10/20 04:45:57;;;;;;;;;;;;;;;;;;;;;
2022/10/20 04:49:23;;;;;;;71.60;56.90;;;;;;;1.91;73.00;101531.38;106835;1298;21980;-82
2022/10/20 04:52:50;;;;;;;;;;;;;;;;;;;;;
2022/10/20 04:56:19;;;;;;;;;;;;;;;;;;;;;
2022/10/20 04:59:30;;;;;;;213.60;173.00;;;;;;;1.83;73.37;101523.52;107468;1292;21976;-82
2022/10/20 05:02:42;;;;;;;190.40;150.60;;;;;;;1.80;73.46;101519.70;107988;1287;22445;-80
2022/10/20 05:06:01;;;;;;;;;;;;;;;;;;;;;
2022/10/20 05:08:50;;;;;;;132.40;80.60;;;;;;;1.85;73.68;101518.42;107907;1287;22103;-82
2022/10/20 05:11:29;;;;;;;95.70;66.30;;;;;;;1.85;73.38;101520.48;107920;1290;21926;-82
2022/10/20 05:14:58;;;;;;;;;;;;;;;;;;;;;
2022/10/20 05:18:38;;;;;;;78.50;54.70;;;;;;;1.80;73.57;101524.67;108036;1288;21995;-81
2022/10/20 05:21:42;;;;;;;;;;;;;;;;;;;;;
2022/10/20 05:25:12;;;;;;;83.20;57.10;;;;;;;1.72;73.43;101538.78;108040;1290;22802;-81
2022/10/20 05:28:50;;;;;;;83.90;59.90;;;;;;;1.64;73.48;101544.83;107615;1296;22507;-83
2022/10/20 05:32:08;;;;;;;120.30;72.00;;;;;;;1.60;73.58;101548.35;107593;1292;23060;-82
2022/10/20 05:35:33;;;;;;;95.40;66.90;;;;;;;1.64;74.00;101556.16;107341;1296;21956;-78
2022/10/20 05:38:38;;;;;;;;;;;;;;;;;;;;;
2022/10/20 05:41:44;;;;;;;147.50;80.20;;;;;;;1.75;73.94;101565.80;107584;1294;22372;-81
2022/10/20 05:44:43;;;;;;;92.80;61.60;;;;;;;1.77;73.88;101571.84;107524;1292;22297;-82
2022/10/20 05:47:35;;;;;;;138.80;79.20;;;;;;;1.79;73.80;101573.06;107947;1288;21945;-81
2022/10/20 05:50:44;;;;;;;;;;;;;;;;;;;;;
2022/10/20 05:53:38;;;;;;;111.80;64.10;;;;;;;1.76;73.95;101579.71;107296;1298;23622;-81
2022/10/20 05:56:32;;;;;;;117.00;71.00;;;;;;;1.77;74.01;101578.70;107255;1295;21959;-81
2022/10/20 05:59:46;;;;;;;;;;;;;;;;;;;;;
2022/10/20 06:03:08;;;;;;;;;;;;;;;;;;;;;
2022/10/20 06:06:47;;;;;;;98.20;64.20;;;;;;;1.68;73.68;101590.73;106641;1305;23095;-82
2022/10/20 06:10:33;;;;;;;79.40;56.40;;;;;;;1.52;73.63;101592.81;106367;1306;23241;-82
2022/10/20 06:13:34;;;;;;;97.00;62.80;;;;;;;1.46;73.81;101596.12;106877;1298;22005;-80
2022/10/20 06:16:32;;;;;;;78.10;59.70;;;;;;;1.42;73.96;101593.65;106269;1304;23811;-80
2022/10/20 06:19:26;;;;;;;104.90;70.50;;;;;;;1.43;74.21;101591.45;106820;1300;23826;-79
2022/10/20 06:22:02;;;;;;;93.10;68.30;;;;;;;1.50;74.54;101602.21;106548;1299;22027;-79
2022/10/20 06:24:50;;;;;;;115.50;77.80;;;;;;;1.59;74.71;101603.95;106193;1301;21977;-81
2022/10/20 06:27:18;;;;;;;110.20;71.90;;;;;;;1.71;75.04;101604.16;106327;1301;21965;-82
2022/10/20 06:29:58;;;;;;;139.40;84.70;;;;;;;1.80;74.98;101604.49;106601;1298;23758;-79
2022/10/20 06:32:49;;;;;;;108.10;75.90;;;;;;;1.82;74.93;101602.48;106898;1298;23132;-82
2022/10/20 06:36:29;;;;;;;114.50;80.70;;;;;;;1.85;74.98;101603.89;107470;1295;21985;-81
2022/10/20 06:39:26;;;;;;;123.80;88.10;;;;;;;1.88;74.91;101607.58;107187;1295;22322;-81
2022/10/20 06:42:21;;;;;;;123.40;86.90;;;;;;;1.93;74.96;101606.45;107370;1288;22751;-79
2022/10/20 06:45:19;;;;;;;109.60;75.70;;;;;;;2.01;75.20;101608.29;107797;1288;22425;-80
2022/10/20 06:47:53;;;;;;;93.40;73.30;;;;;;;2.09;75.21;101613.26;107373;1293;21951;-80
2022/10/20 06:51:30;;;;;;;;;;;;;;;;;;;;;
2022/10/20 06:54:49;;;;;;;183.30;145.80;;;;;;;2.19;75.40;101609.46;107372;1295;21974;-80
2022/10/20 06:57:47;;;;;;;;;;;;;;;;;;;;;
2022/10/20 07:00:45;;;;;;;68.20;55.90;;;;;;;2.32;75.25;101604.88;106731;1301;21956;-81
2022/10/20 07:03:49;;;;;;;62.90;53.40;;;;;;;2.34;75.43;101604.90;106227;1302;21968;-80
2022/10/20 07:06:54;;;;;;;79.90;59.20;;;;;;;2.38;75.40;101607.71;105935;1312;23624;-81
2022/10/20 07:10:10;;;;;;;62.20;53.30;;;;;;;2.48;75.68;101613.73;105957;1309;21997;-82
2022/10/20 07:13:00;;;;;;;59.50;52.40;;;;;;;2.57;75.94;101613.00;106219;1307;21998;-80
2022/10/20 07:16:21;;;;;;;60.30;58.40;;;;;;;2.75;76.27;101611.20;106499;1300;22052;-80
2022/10/20 07:19:26;;;;;;;70.60;58.20;;;;;;;2.94;76.40;101608.52;106847;1300;22055;-80
2022/10/20 07:22:35;;;;;;;;;;;;;;;;;;;;;
2022/10/20 07:25:39;;;;;;;77.70;65.60;;;;;;;3.48;76.74;101612.31;106814;1293;23160;-81
2022/10/20 07:28:21;;;;;;;67.50;59.30;;;;;;;3.78;76.79;101610.91;106541;1298;23560;-80
2022/10/20 07:31:05;;;;;;;71.00;62.30;;;;;;;4.09;76.83;101611.39;106616;1300;21928;-79
2022/10/20 07:34:04;;;;;;;64.50;53.30;;;;;;;4.35;76.37;101613.33;106473;1300;21983;-83
2022/10/20 07:37:27;;;;;;;;;;;;;;;;;;;;;
2022/10/20 07:40:27;;;;;;;;;;;;;;;;;;;;;
2022/10/20 07:43:32;;;;;;;63.70;52.40;;;;;;;5.68;76.52;101622.16;107104;1295;21954;-82
2022/10/20 07:46:14;;;;;;;56.80;50.20;;;;;;;6.23;76.32;101621.06;107415;1293;22006;-81
2022/10/20 07:48:55;;;;;;;54.10;46.60;;;;;;;6.68;75.70;101616.73;107397;1295;21964;-81
2022/10/20 07:51:50;;;;;;;60.90;52.80;;;;;;;7.15;75.18;101616.95;107336;1295;23162;-82
2022/10/20 07:54:23;;;;;;;62.20;50.80;;;;;;;7.52;74.50;101617.85;107092;1287;23621;-81
2022/10/20 07:56:55;;;;;;;62.70;49.30;;;;;;;7.83;73.72;101620.27;106754;1300;21967;-80
2022/10/20 07:59:24;;;;;;;59.40;48.80;;;;;;;8.10;72.73;101619.91;106699;1303;21964;-81
2022/10/20 08:01:56;;;;;;;57.10;46.70;;;;;;;8.26;71.43;101619.63;107323;1295;22455;-81
2022/10/20 08:04:30;;;;;;;52.60;43.70;;;;;;;8.49;71.03;101612.35;107397;1295;21959;-80
2022/10/20 08:07:02;;;;;;;45.50;40.20;;;;;;;8.71;70.34;101606.58;107401;1294;21955;-82
2022/10/20 08:09:32;;;;;;;50.60;39.70;;;;;;;8.89;68.86;101602.93;107341;1292;23718;-82
2022/10/20 08:12:05;;;;;;;40.00;31.80;;;;;;;9.02;68.04;101604.18;107129;1293;22798;-81
2022/10/20 08:14:36;;;;;;;44.10;33.20;;;;;;;9.15;67.62;101599.34;107407;1292;21945;-80
2022/10/20 08:17:10;;;;;;;35.10;30.70;;;;;;;9.31;66.93;101598.11;107402;1294;22006;-78
2022/10/20 08:19:39;;;;;;;35.50;29.40;;;;;;;9.34;66.33;101594.92;107475;1288;21950;-78
2022/10/20 08:22:25;;;;;;;33.50;27.70;;;;;;;9.46;66.20;101594.27;107721;1288;22427;-79
2022/10/20 08:25:00;;;;;;;24.70;21.30;;;;;;;9.52;65.60;101594.00;107712;1288;21945;-78
2022/10/20 08:27:34;;;;;;;29.40;22.80;;;;;;;9.62;65.59;101592.83;107643;1289;23074;-79
2022/10/20 08:30:16;;;;;;;24.40;19.40;;;;;;;9.69;65.15;101595.67;107925;1288;21957;-82
2022/10/20 08:33:00;;;;;;;22.10;18.20;;;;;;;9.74;64.79;101596.14;107978;1286;23254;-79
2022/10/20 08:36:31;;;;;;;22.30;18.40;;;;;;;9.82;65.00;101593.58;107992;1286;21957;-80
2022/10/20 08:39:26;;;;;;;20.70;15.50;;;;;;;9.92;64.45;101596.74;107764;1286;21955;-81
2022/10/20 08:42:10;;;;;;;20.60;17.30;;;;;;;9.99;64.00;101588.11;108424;1286;21766;-89
2022/10/20 08:45:15;;;;;;;21.70;16.30;;;;;;;9.93;63.20;101591.67;108718;1288;21954;-87
2022/10/20 08:48:33;;;;;;;25.50;21.50;;;;;;;9.78;62.64;101595.02;107772;1292;23638;-84
2022/10/20 08:51:37;;;;;;;40.20;31.30;;;;;;;9.78;63.16;101593.82;107579;1292;23738;-83
2022/10/20 08:54:15;;;;;;;25.30;21.70;;;;;;;9.79;63.15;101585.98;107577;1292;22066;-85
2022/10/20 08:57:04;;;;;;;21.30;15.10;;;;;;;9.81;63.19;101587.87;107585;1293;21951;-83
2022/10/20 08:59:46;;;;;;;17.70;14.20;;;;;;;9.86;63.07;101588.83;107530;1292;21952;-84
2022/10/20 09:02:22;;;;;;;16.60;14.40;;;;;;;9.77;62.60;101591.05;107709;1292;21957;-84
2022/10/20 09:05:12;;;;;;;19.90;14.00;;;;;;;9.64;62.44;101590.55;107664;1290;23706;-84
2022/10/20 09:08:04;;;;;;;15.00;11.20;;;;;;;9.50;62.33;101586.91;107591;1291;23876;-84
2022/10/20 09:10:52;;;;;;;17.30;13.00;;;;;;;9.47;62.70;101589.73;107112;1291;21962;-85
2022/10/20 09:13:41;;;;;;;17.00;11.40;;;;;;;9.48;62.60;101589.02;106840;1300;21965;-84
2022/10/20 09:16:32;;;;;;;16.10;9.80;;;;;;;9.52;62.69;101590.35;106882;1301;21990;-84
2022/10/20 09:20:23;;;;;;;17.10;10.60;;;;;;;9.50;62.50;101592.82;106783;1301;23788;-84
2022/10/20 09:23:08;;;;;;;11.50;8.90;;;;;;;9.48;61.76;101596.30;106789;1299;23087;-83
2022/10/20 09:26:47;;;;;;;15.20;10.10;;;;;;;9.47;61.72;101595.11;106847;1298;23562;-83
2022/10/20 09:29:48;;;;;;;14.50;9.90;;;;;;;9.53;61.68;101593.82;107372;1295;21949;-84
2022/10/20 09:32:44;;;;;;;12.00;9.90;;;;;;;9.63;61.24;101594.90;106169;1296;1138775;-83
2022/10/20 09:35:30;;;;;;;13.60;11.00;;;;;;;9.75;61.05;101594.20;107439;1296;22127;-84
2022/10/20 09:38:35;;;;;;;;;;;;;;;;;;;;;
2022/10/20 09:41:31;;;;;;;11.60;8.50;;;;;;;10.10;60.58;101587.23;107040;1299;22030;-84
2022/10/20 09:45:15;;;;;;;10.00;8.30;;;;;;;10.24;59.48;101579.35;107082;1301;21972;-84
2022/10/20 09:48:30;;;;;;;11.50;8.30;;;;;;;10.43;58.75;101574.88;106890;1295;23380;-84
2022/10/20 09:51:05;;;;;;;11.80;7.50;;;;;;;10.63;57.65;101566.52;107284;1291;24314;-83
2022/10/20 09:54:14;;;;;;;12.40;8.20;;;;;;;10.84;57.16;101564.55;107524;1292;22661;-84
2022/10/20 09:57:09;;;;;;;9.60;7.10;;;;;;;11.17;57.83;101563.89;107782;1292;23789;-83
2022/10/20 10:00:06;;;;;;;10.40;7.50;;;;;;;11.64;57.82;101567.91;107901;1286;23090;-83
2022/10/20 10:03:20;;;;;;;8.00;6.20;;;;;;;12.00;56.85;101564.84;108117;1286;22325;-83
2022/10/20 10:06:47;;;;;;;8.10;6.30;;;;;;;12.30;55.98;101559.19;108111;1286;23504;-84
2022/10/20 10:09:30;;;;;;;8.00;5.90;;;;;;;12.64;55.17;101555.87;108009;1286;21963;-84
2022/10/20 10:12:19;;;;;;;12.10;7.10;;;;;;;13.03;55.07;101550.92;108045;1286;23026;-84
2022/10/20 10:14:57;;;;;;;5.30;4.60;;;;;;;13.43;53.44;101553.09;108028;1287;22052;-85
2022/10/20 10:17:45;;;;;;;7.10;5.40;;;;;;;13.57;50.89;101548.14;108173;1288;21968;-85
2022/10/20 10:21:10;;;;;;;6.60;4.80;;;;;;;13.55;50.91;101542.77;108154;1289;24283;-84
2022/10/20 10:24:03;;;;;;;5.40;3.80;;;;;;;13.89;50.98;101539.42;107820;1292;22001;-86
2022/10/20 10:26:53;;;;;;;4.70;3.80;;;;;;;14.19;50.19;101536.31;107707;1291;21964;-82
2022/10/20 10:29:36;;;;;;;6.90;3.10;;;;;;;14.03;47.90;101533.54;106985;1298;22853;-82
2022/10/20 10:32:25;;;;;;;6.70;3.50;;;;;;;13.66;48.61;101527.20;107128;1297;22453;-82
2022/10/20 10:35:08;;;;;;;5.20;4.10;;;;;;;13.45;49.15;101527.16;107082;1297;21959;-82
2022/10/20 10:37:41;;;;;;;5.30;4.30;;;;;;;13.68;50.66;101521.52;106495;1303;21975;-83
2022/10/20 10:40:31;;;;;;;7.30;4.00;;;;;;;14.10;50.50;101520.52;106415;1298;22733;-83
2022/10/20 10:43:32;;;;;;;7.90;4.10;;;;;;;14.57;50.41;101514.16;106755;1300;22292;-80
2022/10/20 10:46:15;;;;;;;6.70;3.40;;;;;;;15.04;49.31;101512.80;106862;1300;21973;-82
2022/10/20 10:49:06;;;;;;;6.70;3.40;;;;;;;15.36;48.27;101512.46;107388;1294;21975;-83
2022/10/20 10:52:13;;;;;;;5.30;2.90;;;;;;;15.50;46.77;101506.30;107636;1292;21970;-81
2022/10/20 10:55:31;;;;;;;4.10;2.60;;;;;;;15.36;45.86;101504.73;106271;1303;23174;-81
2022/10/20 10:58:35;;;;;;;4.40;2.80;;;;;;;14.81;45.73;101501.91;106574;1298;21981;-80
2022/10/20 11:01:17;;;;;;;6.00;2.70;;;;;;;14.53;46.06;101492.91;106778;1298;22944;-81
2022/10/20 11:04:12;;;;;;;4.20;2.10;;;;;;;14.22;45.52;101488.59;106974;1299;23715;-80
2022/10/20 11:06:49;;;;;;;4.40;2.50;;;;;;;13.66;44.97;101481.38;106774;1298;22026;-81
2022/10/20 11:09:34;;;;;;;4.40;2.50;;;;;;;13.26;45.99;101482.27;106833;1300;21998;-79
2022/10/20 11:12:21;;;;;;;6.00;4.40;;;;;;;13.05;46.91;101478.34;107008;1298;22014;-78
2022/10/20 11:15:25;;;;;;;7.90;5.20;;;;;;;12.93;47.65;101471.74;107091;1295;22769;-80
2022/10/20 11:18:08;;;;;;;8.00;5.20;;;;;;;12.65;47.44;101470.79;107140;1293;21962;-80
2022/10/20 11:21:01;;;;;;;6.50;3.20;;;;;;;12.33;47.43;101462.09;107135;1295;21987;-80
2022/10/20 11:24:07;;;;;;;5.90;3.70;;;;;;;12.07;47.97;101456.48;107340;1294;23164;-80
2022/10/20 11:26:42;;;;;;;3.60;2.90;;;;;;;11.77;48.46;101450.42;107291;1295;21970;-80
2022/10/20 11:29:31;;;;;;;4.60;3.10;;;;;;;11.66;49.29;101443.04;107138;1295;22100;-79
2022/10/20 11:32:13;;;;;;;5.10;3.60;;;;;;;11.64;49.64;101447.27;107544;1287;21946;-80
2022/10/20 11:35:34;;;;;;;5.60;3.20;;;;;;;11.54;49.87;101443.31;107824;1286;21963;-80
2022/10/20 11:38:38;;;;;;;5.90;2.90;;;;;;;11.39;49.96;101441.75;108201;1284;21951;-79
2022/10/20 11:41:51;;;;;;;4.90;2.90;;;;;;;11.23;50.02;101434.12;108032;1281;23000;-80
2022/10/20 11:44:43;;;;;;;5.60;3.20;;;;;;;11.15;50.69;101429.96;107928;1285;22832;-82
2022/10/20 11:47:30;;;;;;;6.20;3.00;;;;;;;11.13;50.82;101428.09;107993;1286;23031;-81
2022/10/20 11:50:04;;;;;;;4.80;3.60;;;;;;;11.12;51.12;101422.20;108158;1283;21944;-81
2022/10/20 11:53:14;;;;;;;5.10;3.70;;;;;;;11.11;51.35;101416.27;108082;1287;22009;-81
2022/10/20 11:56:02;;;;;;;4.60;3.50;;;;;;;11.14;51.47;101419.54;108170;1288;21949;-81
2022/10/20 11:58:44;;;;;;;7.10;3.20;;;;;;;11.09;51.62;101418.07;108069;1288;23720;-81
2022/10/20 12:02:28;;;;;;;5.60;3.20;;;;;;;11.05;51.79;101414.85;108057;1289;21991;-80
2022/10/20 12:05:19;;;;;;;5.10;3.90;;;;;;;10.99;52.07;101409.77;107534;1295;21986;-80
2022/10/20 12:08:45;;;;;;;5.50;3.80;;;;;;;10.98;52.11;101405.95;107457;1291;21955;-81
2022/10/20 12:11:24;;;;;;;5.00;3.00;;;;;;;10.97;51.99;101409.81;106810;1294;22729;-80
2022/10/20 12:14:14;;;;;;;3.50;2.40;;;;;;;10.92;51.77;101405.05;107343;1295;22479;-80
2022/10/20 12:16:54;;;;;;;4.90;2.70;;;;;;;10.87;51.96;101400.81;107078;1295;21985;-80
2022/10/20 12:19:29;;;;;;;4.50;3.10;;;;;;;10.86;51.80;101403.62;107343;1295;21960;-80
2022/10/20 12:22:03;;;;;;;5.60;2.90;;;;;;;10.84;51.87;101404.88;107374;1295;22020;-79
2022/10/20 12:24:36;;;;;;;4.50;2.50;;;;;;;10.80;51.82;101408.45;107425;1295;22425;-82
2022/10/20 12:27:08;;;;;;;5.20;2.90;;;;;;;10.79;51.89;101407.42;107617;1294;22390;-79
2022/10/20 12:29:42;;;;;;;3.80;2.80;;;;;;;10.80;51.84;101402.35;107419;1294;21956;-80
2022/10/20 12:32:48;;;;;;;5.20;2.50;;;;;;;10.82;51.83;101394.30;107622;1294;24426;-81
2022/10/20 12:35:59;;;;;;;4.90;2.60;;;;;;;10.81;52.03;101391.70;107561;1290;22127;-81
2022/10/20 12:38:31;;;;;;;4.50;3.20;;;;;;;10.80;52.13;101388.95;107492;1289;23987;-81
2022/10/20 12:41:01;;;;;;;6.20;3.20;;;;;;;10.80;52.15;101383.90;108220;1288;21983;-80
2022/10/20 12:43:59;;;;;;;5.30;3.30;;;;;;;10.75;52.41;101369.20;108133;1289;23090;-80
2022/10/20 12:46:42;;;;;;;4.30;2.80;;;;;;;10.82;52.48;101368.34;108106;1288;21954;-81
2022/10/20 12:49:50;;;;;;;4.90;2.90;;;;;;;10.84;52.32;101364.48;108219;1286;21954;-81
2022/10/20 12:52:27;;;;;;;5.60;2.60;;;;;;;10.84;52.39;101364.13;107897;1286;21930;-81
2022/10/20 12:55:12;;;;;;;4.60;3.10;;;;;;;10.86;52.50;101360.25;107934;1286;21961;-79
2022/10/20 12:57:44;;;;;;;6.60;4.00;;;;;;;10.85;52.45;101352.09;107508;1292;21964;-80
2022/10/20 13:00:22;;;;;;;4.10;2.70;;;;;;;10.85;52.53;101349.83;107374;1292;21939;-79
2022/10/20 13:02:56;;;;;;;4.90;3.20;;;;;;;10.84;52.43;101349.66;107810;1291;22000;-81
2022/10/20 13:05:46;;;;;;;8.90;4.90;;;;;;;10.83;52.44;101341.86;107689;1292;21963;-82
2022/10/20 13:08:19;;;;;;;4.50;2.90;;;;;;;10.84;52.46;101344.45;107406;1292;21966;-79
2022/10/20 13:10:49;;;;;;;4.90;3.40;;;;;;;10.86;52.45;101343.86;107683;1292;22507;-79
2022/10/20 13:13:18;;;;;;;10.00;3.10;;;;;;;10.87;52.22;101343.51;107174;1291;21958;-78
2022/10/20 13:15:53;;;;;;;6.60;2.90;;;;;;;10.85;52.08;101336.59;107615;1286;24534;-79
2022/10/20 13:18:30;;;;;;;5.00;3.30;;;;;;;10.85;51.99;101338.15;108077;1286;21957;-77
2022/10/20 13:21:27;;;;;;;3.00;2.30;;;;;;;10.88;52.01;101338.61;107761;1286;21959;-79
2022/10/20 13:24:15;;;;;;;19.70;4.70;;;;;;;10.87;51.93;101333.41;108132;1286;23645;-80
2022/10/20 13:26:58;;;;;;;4.20;2.70;;;;;;;10.87;51.99;101336.20;108085;1286;22441;-78
2022/10/20 13:29:35;;;;;;;5.80;2.50;;;;;;;10.85;51.82;101334.31;107781;1288;22150;-79
2022/10/20 13:32:36;;;;;;;10.80;3.10;;;;;;;10.84;51.85;101333.65;108032;1286;22090;-78
2022/10/20 13:35:45;;;;;;;18.20;4.60;;;;;;;10.81;51.99;101325.73;108059;1284;23703;-80
2022/10/20 13:38:29;;;;;;;5.00;2.60;;;;;;;10.81;52.10;101318.05;107687;1289;21935;-78
2022/10/20 13:41:39;;;;;;;4.40;2.50;;;;;;;10.82;51.88;101313.69;108047;1289;21969;-78
2022/10/20 13:44:43;;;;;;;5.70;3.10;;;;;;;10.82;51.99;101312.31;108200;1288;21950;-78
2022/10/20 13:47:27;;;;;;;5.00;2.70;;;;;;;10.80;51.95;101306.92;108173;1284;22209;-81
2022/10/20 13:50:08;;;;;;;4.20;2.50;;;;;;;10.79;52.09;101310.61;107779;1288;21921;-80
2022/10/20 13:52:49;;;;;;;3.90;2.50;;;;;;;10.77;52.15;101312.05;107839;1288;22865;-80
2022/10/20 13:55:50;;;;;;;6.60;3.00;;;;;;;10.75;52.29;101306.86;107971;1289;22025;-79
2022/10/20 13:58:23;;;;;;;5.30;3.00;;;;;;;10.75;52.59;101299.40;108080;1287;21987;-79
2022/10/20 14:01:03;;;;;;;5.30;2.90;;;;;;;10.77;52.69;101300.05;108003;1288;23092;-80
2022/10/20 14:03:43;;;;;;;5.60;3.30;;;;;;;10.77;52.69;101293.77;107870;1289;22050;-80
2022/10/20 14:06:40;;;;;;;6.60;3.70;;;;;;;10.78;52.77;101288.88;108219;1287;21955;-80
2022/10/20 14:09:23;;;;;;;5.10;2.80;;;;;;;10.76;52.79;101289.61;108154;1289;21953;-80
2022/10/20 14:12:25;;;;;;;6.10;3.30;;;;;;;10.77;52.91;101285.41;107996;1288;22019;-80
2022/10/20 14:14:57;;;;;;;6.00;3.30;;;;;;;10.78;52.88;101280.17;108118;1288;22050;-79
2022/10/20 14:17:34;;;;;;;4.20;3.10;;;;;;;10.78;52.96;101275.64;107645;1289;21949;-80
2022/10/20 14:20:40;;;;;;;8.00;3.60;;;;;;;10.75;53.03;101275.70;108097;1289;21933;-81
2022/10/20 14:23:10;;;;;;;4.80;3.70;;;;;;;10.73;53.01;101273.31;108146;1287;21973;-80
2022/10/20 14:25:40;;;;;;;5.40;3.40;;;;;;;10.74;53.16;101276.78;108063;1288;21963;-79
2022/10/20 14:28:19;;;;;;;5.00;3.30;;;;;;;10.72;53.13;101274.20;107552;1292;22312;-79
2022/10/20 14:30:51;;;;;;;6.20;3.10;;;;;;;10.71;53.24;101268.66;107698;1292;23665;-79
2022/10/20 14:33:23;;;;;;;5.10;2.90;;;;;;;10.70;53.37;101269.05;107387;1291;23134;-79
2022/10/20 14:36:06;;;;;;;8.60;3.60;;;;;;;10.69;53.38;101268.55;107573;1294;21986;-79
2022/10/20 14:38:37;;;;;;;4.10;3.30;;;;;;;10.68;53.47;101265.61;107524;1292;21973;-79
2022/10/20 14:41:31;;;;;;;6.80;3.60;;;;;;;10.63;53.53;101259.81;107337;1288;23621;-80
2022/10/20 14:44:07;;;;;;;5.80;3.20;;;;;;;10.60;53.59;101260.23;107456;1292;21951;-79
2022/10/20 14:46:58;;;;;;;7.20;4.30;;;;;;;10.58;53.67;101257.30;107770;1288;21986;-77
2022/10/20 14:49:36;;;;;;;6.40;3.70;;;;;;;10.57;53.73;101254.20;107929;1288;21973;-81
2022/10/20 14:52:16;;;;;;;6.80;4.30;;;;;;;10.55;53.72;101258.41;107874;1289;22000;-79